Time;durP1;ratioP1;P1;durP2;ratioP2;P2;SDS_P1;SDS_P2;PMS_P1;PMS_P2;Temp;Humidity;BMP_temperature;BMP_pressure;BME280_temperature;BME280_humidity;BME280_pressure;Samples;Min_cycle;Max_cycle;Signal;HPM_P1;HPM_P2
2021/08/26 00:00:10;;;;;;;0.52;0.50;;;22.10;51.90;;;25.88;35.26;100833.06;5093615;28;20044;-34
2021/08/26 00:08:12;;;;;;;1.48;0.65;;;22.10;51.90;;;25.86;35.36;100830.53;5092793;28;20397;-34
2021/08/26 00:10:39;;;;;;;0.50;0.50;;;22.10;52.00;;;25.85;35.19;100831.47;5093921;28;20458;-34
2021/08/26 00:13:09;;;;;;;0.60;0.60;;;22.10;52.00;;;25.83;35.36;100824.56;5093639;28;20048;-34
2021/08/26 00:15:35;;;;;;;1.42;0.68;;;22.10;52.00;;;25.81;35.53;100831.84;5093432;28;20059;-34
2021/08/26 00:18:01;;;;;;;0.50;0.50;;;22.10;52.00;;;25.83;35.38;100829.94;5093274;28;20493;-34
2021/08/26 00:20:27;;;;;;;0.63;0.50;;;22.10;52.00;;;25.82;35.41;100826.38;5093343;28;20044;-34
2021/08/26 00:22:53;;;;;;;0.82;0.60;;;22.10;52.00;;;25.84;35.50;100828.94;5093319;28;20048;-33
2021/08/26 00:25:19;;;;;;;0.70;0.63;;;22.10;52.00;;;25.81;35.34;100823.81;5093297;28;20067;-33
2021/08/26 00:27:45;;;;;;;0.63;0.63;;;22.00;52.00;;;25.82;35.48;100823.69;5093217;28;20131;-34
2021/08/26 00:30:11;;;;;;;1.33;0.60;;;22.10;52.10;;;25.82;35.44;100822.84;5093721;28;20048;-34
2021/08/26 00:32:36;;;;;;;0.50;0.50;;;22.10;52.10;;;25.77;35.39;100815.19;5093497;28;20071;-34
2021/08/26 00:35:02;;;;;;;0.70;0.70;;;22.10;52.10;;;25.80;35.50;100824.81;5092978;28;20052;-34
2021/08/26 00:37:29;;;;;;;0.88;0.63;;;22.10;52.10;;;25.77;35.35;100819.72;5093072;28;20097;-34
2021/08/26 00:39:56;;;;;;;0.65;0.65;;;22.00;52.10;;;25.77;35.46;100811.69;5093004;28;20048;-34
2021/08/26 00:42:24;;;;;;;0.80;0.60;;;22.00;52.10;;;25.80;35.39;100814.09;5093595;28;20101;-34
2021/08/26 00:44:51;;;;;;;0.50;0.50;;;22.00;52.10;;;25.79;35.42;100823.09;5092995;28;20040;-34
2021/08/26 00:47:17;;;;;;;1.10;0.75;;;22.00;52.10;;;25.79;35.47;100804.38;5092903;28;20118;-34
2021/08/26 00:49:43;;;;;;;0.90;0.60;;;22.00;52.10;;;25.78;35.47;100814.22;5092835;28;20093;-34
2021/08/26 00:52:10;;;;;;;0.70;0.70;;;22.00;52.10;;;25.74;35.68;100799.38;5092827;28;20055;-33
2021/08/26 00:54:37;;;;;;;0.88;0.80;;;22.00;52.10;;;25.76;35.49;100800.13;5092714;28;20056;-33
2021/08/26 00:57:03;;;;;;;0.70;0.70;;;22.00;52.10;;;25.75;35.48;100793.06;5092578;28;20048;-34
2021/08/26 00:59:32;;;;;;;0.73;0.60;;;22.00;52.20;;;25.75;35.48;100792.22;5092911;28;20052;-34
2021/08/26 01:02:09;;;;;;;0.63;0.63;;;22.00;52.20;;;25.75;35.56;100802.94;5093128;28;20055;-34
2021/08/26 01:05:29;;;;;;;0.75;0.68;;;22.00;52.20;;;25.75;35.51;100801.09;5072970;28;20083;-34
2021/08/26 01:08:14;;;;;;;0.55;0.55;;;22.00;52.20;;;25.70;35.49;100793.44;5092347;28;20093;-34
2021/08/26 01:10:44;;;;;;;1.65;0.50;;;22.00;52.20;;;25.71;35.49;100794.31;5092526;28;20052;-33
2021/08/26 01:13:10;;;;;;;0.50;0.50;;;22.00;52.20;;;25.71;35.60;100802.34;5092397;28;20048;-34
2021/08/26 01:15:36;;;;;;;0.88;0.50;;;22.00;52.30;;;25.71;35.71;100799.66;5071064;28;20426;-34
2021/08/26 01:18:03;;;;;;;0.50;0.50;;;21.90;52.20;;;25.69;35.57;100790.88;5092291;28;20052;-34
2021/08/26 01:20:28;;;;;;;0.60;0.60;;;21.90;52.20;;;25.68;35.61;100789.22;5092699;28;20435;-34
2021/08/26 01:22:54;;;;;;;0.50;0.50;;;22.00;52.30;;;25.66;35.60;100783.09;5092550;28;20048;-34
2021/08/26 01:25:25;;;;;;;0.75;0.70;;;21.90;52.20;;;25.67;35.58;100793.69;5074596;28;20048;-34
2021/08/26 01:28:04;;;;;;;0.77;0.60;;;22.00;52.30;;;25.65;35.64;100792.13;5057392;28;20048;-34
2021/08/26 01:30:35;;;;;;;0.45;0.45;;;21.90;52.30;;;25.67;35.64;100791.00;5091195;28;20051;-34
2021/08/26 01:33:03;;;;;;;0.50;0.50;;;21.90;52.20;;;25.66;35.61;100781.28;5092542;28;20048;-34
2021/08/26 01:35:29;;;;;;;0.57;0.57;;;21.90;52.30;;;25.66;35.77;100785.78;5092349;28;20101;-34
2021/08/26 01:37:55;;;;;;;0.40;0.40;;;21.90;52.30;;;25.64;35.54;100787.75;5072200;28;20060;-34
2021/08/26 01:40:38;;;;;;;0.60;0.60;;;21.90;52.30;;;25.60;35.55;100781.78;5092267;28;20078;-35
2021/08/26 01:43:14;;;;;;;0.80;0.60;;;21.90;52.30;;;25.62;35.83;100787.03;5092241;28;20096;-34
2021/08/26 01:45:44;;;;;;;0.60;0.60;;;21.90;52.30;;;25.62;35.64;100779.00;5092081;28;20048;-34
2021/08/26 01:48:12;;;;;;;0.60;0.50;;;21.90;52.40;;;25.66;35.61;100788.47;5092514;28;20047;-34
2021/08/26 01:50:37;;;;;;;0.55;0.55;;;21.90;52.40;;;25.61;35.68;100785.31;5095553;28;20504;-34
2021/08/26 01:53:04;;;;;;;0.75;0.50;;;21.90;52.40;;;25.61;35.57;100779.97;5095888;28;20079;-34
2021/08/26 01:55:30;;;;;;;0.50;0.50;;;21.90;52.40;;;25.62;35.88;100790.53;5095972;28;20044;-34
2021/08/26 01:57:58;;;;;;;0.60;0.52;;;21.90;52.40;;;25.59;35.73;100779.25;5095321;28;20500;-34
2021/08/26 02:00:24;;;;;;;0.70;0.57;;;21.90;52.40;;;25.58;35.71;100782.91;5096082;28;20040;-34
2021/08/26 02:02:50;;;;;;;0.70;0.70;;;21.90;52.40;;;25.60;35.71;100784.47;5095565;28;20055;-33
2021/08/26 02:05:16;;;;;;;0.60;0.60;;;21.90;52.50;;;25.55;35.75;100777.81;5096105;28;20048;-34
2021/08/26 02:07:49;;;;;;;0.60;0.60;;;21.90;52.50;;;25.56;35.70;100788.41;5095288;28;20066;-34
2021/08/26 02:10:15;;;;;;;0.63;0.60;;;21.80;52.50;;;25.59;35.66;100779.25;5095554;28;20055;-34
2021/08/26 02:12:42;;;;;;;0.63;0.63;;;21.80;53.00;;;25.55;35.82;100778.66;5095391;28;20044;-33
2021/08/26 02:15:10;;;;;;;0.63;0.63;;;21.90;52.50;;;25.57;35.80;100789.25;5095178;28;20056;-33
2021/08/26 02:17:36;;;;;;;1.77;0.60;;;21.80;52.50;;;25.54;35.83;100781.47;5077144;28;20173;-33
2021/08/26 02:20:07;;;;;;;0.50;0.50;;;21.80;52.50;;;25.55;35.94;100785.84;5095028;28;20571;-34
2021/08/26 02:22:33;;;;;;;0.88;0.70;;;21.80;52.50;;;25.56;35.82;100774.13;5095670;28;20062;-34
2021/08/26 02:24:59;;;;;;;0.57;0.57;;;21.80;52.50;;;25.52;35.97;100787.78;5095142;28;20098;-34
2021/08/26 02:27:25;;;;;;;0.50;0.50;;;21.80;52.50;;;25.55;35.84;100780.50;5095138;28;20393;-34
2021/08/26 02:29:51;;;;;;;0.85;0.60;;;21.80;52.50;;;25.54;35.92;100784.13;5094981;28;20130;-34
2021/08/26 02:32:17;;;;;;;1.27;0.70;;;21.80;52.60;;;25.52;35.74;100777.06;5095035;28;20052;-34
2021/08/26 02:34:43;;;;;;;1.30;0.52;;;21.80;52.60;;;25.52;35.88;100773.53;5094916;28;20093;-33
2021/08/26 02:37:09;;;;;;;0.60;0.60;;;21.80;52.60;;;25.53;35.88;100783.28;5094858;28;20131;-34
2021/08/26 02:39:35;;;;;;;0.98;0.60;;;21.80;52.60;;;25.47;36.08;100773.91;5095224;28;20459;-34
2021/08/26 02:42:03;;;;;;;0.60;0.60;;;21.80;52.60;;;25.49;35.93;100774.66;5076540;28;20044;-33
2021/08/26 02:44:29;;;;;;;0.73;0.60;;;21.70;52.60;;;25.50;35.96;100781.69;5094608;28;20197;-34
2021/08/26 02:46:56;;;;;;;0.47;0.47;;;21.80;52.60;;;25.47;35.89;100775.75;5094773;28;20051;-34
2021/08/26 02:49:22;;;;;;;0.57;0.57;;;21.80;52.60;;;25.49;36.16;100777.34;5094641;28;20124;-34
2021/08/26 02:51:48;;;;;;;0.70;0.45;;;21.80;52.60;;;25.48;35.98;100783.66;5094744;28;20116;-33
2021/08/26 02:54:14;;;;;;;0.50;0.50;;;21.80;52.60;;;25.50;35.91;100783.53;5094700;28;20040;-34
2021/08/26 02:56:39;;;;;;;0.60;0.60;;;21.80;52.70;;;25.49;35.98;100787.19;5094784;28;20052;-34
2021/08/26 02:59:05;;;;;;;1.00;0.60;;;21.70;52.60;;;25.47;36.01;100781.09;5094436;28;20048;-34
2021/08/26 03:01:31;;;;;;;0.60;0.60;;;21.70;52.60;;;25.47;36.16;100776.59;5093193;28;20481;-33
2021/08/26 03:03:57;;;;;;;1.02;0.55;;;21.70;52.60;;;25.49;35.98;100784.50;5094595;28;20060;-34
2021/08/26 03:06:24;;;;;;;0.60;0.60;;;21.70;52.70;;;25.48;35.95;100796.22;5094532;28;20178;-33
2021/08/26 03:08:49;;;;;;;0.60;0.60;;;21.70;52.70;;;25.44;36.03;100789.38;5094445;28;20060;-34
2021/08/26 03:11:15;;;;;;;0.60;0.60;;;21.70;52.70;;;25.46;35.90;100790.97;5095046;28;20050;-34
2021/08/26 03:13:41;;;;;;;0.50;0.50;;;21.70;52.70;;;25.45;35.92;100781.22;5094443;28;20121;-34
2021/08/26 03:16:07;;;;;;;1.15;0.60;;;21.70;52.70;;;25.45;36.02;100772.38;5094929;28;20131;-34
2021/08/26 03:18:33;;;;;;;1.75;0.60;;;21.70;52.70;;;25.46;36.00;100771.38;5094097;28;20079;-34
2021/08/26 03:20:59;;;;;;;1.02;0.60;;;21.80;52.70;;;25.48;35.90;100772.13;5094302;28;20044;-35
2021/08/26 03:23:25;;;;;;;0.57;0.47;;;21.80;52.70;;;25.48;35.97;100764.09;5094277;28;20398;-35
2021/08/26 03:25:52;;;;;;;0.73;0.65;;;21.80;52.60;;;25.47;35.95;100765.06;5094542;28;20077;-34
2021/08/26 03:28:20;;;;;;;0.50;0.50;;;21.80;52.60;;;25.48;35.94;100772.13;5093901;28;20109;-34
2021/08/26 03:30:46;;;;;;;0.50;0.50;;;21.80;52.50;;;25.51;35.86;100758.47;5094022;28;20044;-34
2021/08/26 03:33:12;;;;;;;0.70;0.70;;;21.90;52.60;;;25.54;35.89;100757.34;5094059;28;20059;-34
2021/08/26 03:35:38;;;;;;;0.52;0.50;;;21.80;52.50;;;25.51;35.91;100770.03;5094147;28;20055;-34
2021/08/26 03:38:04;;;;;;;0.60;0.60;;;21.80;52.50;;;25.53;35.76;100769.91;5093878;28;20463;-34
2021/08/26 03:40:29;;;;;;;0.50;0.45;;;21.80;52.50;;;25.57;35.83;100771.34;5093924;28;20477;-34
2021/08/26 03:42:56;;;;;;;0.52;0.52;;;21.80;52.50;;;25.60;35.85;100770.25;5093871;28;20044;-34
2021/08/26 03:45:21;;;;;;;0.70;0.70;;;21.90;52.50;;;25.60;35.76;100772.94;5093932;28;20070;-34
2021/08/26 03:47:47;;;;;;;0.70;0.70;;;21.90;52.50;;;25.63;35.71;100778.88;5094130;28;20385;-34
2021/08/26 03:50:13;;;;;;;0.60;0.55;;;21.90;52.40;;;25.66;35.65;100777.75;5093972;28;20048;-34
2021/08/26 03:52:39;;;;;;;0.82;0.57;;;21.90;52.40;;;25.65;35.67;100776.06;5093760;28;20142;-34
2021/08/26 03:55:05;;;;;;;0.70;0.57;;;21.90;52.40;;;25.69;35.72;100783.72;5093792;28;20093;-34
2021/08/26 03:57:31;;;;;;;0.80;0.70;;;21.90;52.40;;;25.72;35.45;100777.25;5093631;28;20127;-34
2021/08/26 03:59:57;;;;;;;0.52;0.52;;;21.90;52.30;;;25.74;35.70;100782.47;5093873;28;20553;-34
2021/08/26 04:02:23;;;;;;;0.63;0.50;;;21.90;52.30;;;25.73;35.55;100775.41;5093581;28;20044;-34
2021/08/26 04:04:49;;;;;;;0.65;0.65;;;21.90;52.30;;;25.76;35.63;100772.47;5093704;28;20130;-34
2021/08/26 04:07:17;;;;;;;0.40;0.40;;;21.90;52.30;;;25.77;35.53;100775.03;5093546;28;20101;-34
2021/08/26 04:09:45;;;;;;;0.40;0.40;;;21.90;52.30;;;25.79;35.55;100773.06;5093478;28;20493;-34
2021/08/26 04:12:12;;;;;;;0.60;0.52;;;21.90;52.30;;;25.76;35.53;100762.63;5092918;28;20550;-34
2021/08/26 04:14:38;;;;;;;0.80;0.65;;;22.00;52.30;;;25.82;35.54;100766.63;5093101;28;20052;-34
2021/08/26 04:17:05;;;;;;;0.50;0.50;;;22.00;52.30;;;25.77;35.58;100777.72;5093349;28;20379;-34
2021/08/26 04:19:31;;;;;;;0.82;0.50;;;22.00;52.30;;;25.80;35.52;100782.81;5093132;28;20139;-34
2021/08/26 04:21:57;;;;;;;1.00;0.90;;;22.00;52.30;;;25.80;35.45;100776.63;5093082;28;20048;-34
2021/08/26 04:24:22;;;;;;;0.57;0.50;;;22.00;52.30;;;25.81;35.58;100772.94;5093509;28;20093;-34
2021/08/26 04:26:48;;;;;;;0.65;0.60;;;22.00;52.30;;;25.80;35.38;100766.75;5093374;28;20052;-34
2021/08/26 04:29:14;;;;;;;0.77;0.68;;;22.00;52.30;;;25.81;35.46;100770.25;5093144;28;20056;-34
2021/08/26 04:31:40;;;;;;;0.60;0.50;;;22.00;52.30;;;25.81;35.47;100779.16;5093267;28;20044;-34
2021/08/26 04:34:06;;;;;;;1.27;0.50;;;21.90;52.30;;;25.81;35.44;100771.13;5093337;28;20055;-34
2021/08/26 04:36:32;;;;;;;0.80;0.80;;;22.00;52.30;;;25.76;35.56;100767.13;5093245;28;20127;-34
2021/08/26 04:38:57;;;;;;;0.50;0.50;;;21.90;52.30;;;25.78;35.43;100776.75;5093082;28;20052;-34
2021/08/26 04:41:23;;;;;;;1.60;0.75;;;22.00;52.40;;;25.77;35.47;100769.66;5093250;28;20048;-34
2021/08/26 04:43:49;;;;;;;0.60;0.43;;;21.90;52.30;;;25.77;35.55;100772.34;5074728;28;20058;-34
2021/08/26 04:46:15;;;;;;;0.52;0.50;;;22.00;52.40;;;25.74;35.37;100761.88;5093065;28;20094;-33
2021/08/26 04:48:40;;;;;;;0.90;0.70;;;21.90;52.30;;;25.74;35.64;100769.09;5092987;28;20075;-34
2021/08/26 04:51:06;;;;;;;0.47;0.47;;;22.00;52.30;;;25.74;35.70;100764.56;5093210;28;20047;-34
2021/08/26 04:53:32;;;;;;;0.63;0.63;;;22.00;52.30;;;25.75;35.58;100760.94;5092799;28;20044;-34
2021/08/26 04:55:59;;;;;;;0.63;0.60;;;22.00;52.30;;;25.78;35.47;100770.53;5092848;28;20053;-34
2021/08/26 04:58:25;;;;;;;1.83;0.60;;;22.00;52.30;;;25.77;35.52;100766.16;5093337;28;20071;-34
2021/08/26 05:00:50;;;;;;;1.40;0.73;;;22.00;52.30;;;25.76;35.55;100759.97;5092670;28;20048;-34
2021/08/26 05:03:16;;;;;;;0.73;0.50;;;22.00;52.30;;;25.74;35.40;100751.19;5093058;28;20052;-34
2021/08/26 05:05:42;;;;;;;0.68;0.68;;;22.00;52.30;;;25.77;35.58;100768.84;5092782;28;20059;-34
2021/08/26 05:08:07;;;;;;;0.75;0.73;;;21.90;52.20;;;25.76;35.57;100777.84;5092653;28;20060;-34
2021/08/26 05:10:33;;;;;;;0.65;0.60;;;22.00;52.30;;;25.77;35.56;100769.66;5092822;28;20493;-34
2021/08/26 05:12:59;;;;;;;0.70;0.70;;;22.00;52.30;;;25.78;35.58;100759.84;5092627;28;20485;-34
2021/08/26 05:15:25;;;;;;;0.60;0.60;;;22.00;52.30;;;25.78;35.55;100765.19;5092862;28;20056;-34
2021/08/26 05:17:51;;;;;;;0.90;0.60;;;22.00;52.30;;;25.77;35.57;100764.31;5092716;28;20057;-34
2021/08/26 05:20:17;;;;;;;0.65;0.57;;;22.00;52.20;;;25.78;35.50;100763.34;5092557;28;20052;-34
2021/08/26 05:22:42;;;;;;;0.90;0.70;;;22.00;52.20;;;25.81;35.58;100763.09;5074570;28;20055;-34
2021/08/26 05:25:08;;;;;;;0.50;0.50;;;22.00;52.20;;;25.81;35.76;100765.78;5094817;28;20055;-34
2021/08/26 05:27:34;;;;;;;0.95;0.80;;;22.00;52.10;;;25.83;35.49;100761.13;5095983;28;20052;-34
2021/08/26 05:30:00;;;;;;;1.23;0.70;;;22.00;52.10;;;25.85;35.31;100752.97;5096029;28;20131;-34
2021/08/26 05:32:26;;;;;;;1.25;0.73;;;22.00;52.10;;;25.85;35.45;100763.69;5095909;28;20052;-34
2021/08/26 05:34:51;;;;;;;0.88;0.82;;;22.00;52.10;;;25.82;35.53;100769.28;5096068;28;20093;-35
2021/08/26 05:37:18;;;;;;;1.02;0.63;;;22.00;52.10;;;25.81;35.61;100770.25;5096211;28;20048;-34
2021/08/26 05:39:45;;;;;;;0.60;0.60;;;22.00;52.10;;;25.85;35.40;100777.06;5077509;28;20040;-34
2021/08/26 05:42:11;;;;;;;0.50;0.50;;;22.00;52.10;;;25.82;35.40;100772.81;5095590;28;20052;-33
2021/08/26 05:44:37;;;;;;;0.52;0.50;;;22.00;52.10;;;25.85;35.46;100775.25;5095425;28;20362;-34
2021/08/26 05:47:03;;;;;;;0.88;0.70;;;22.00;52.10;;;25.84;35.39;100784.28;5095305;28;20482;-35
2021/08/26 05:49:28;;;;;;;0.60;0.60;;;22.00;52.10;;;25.85;35.46;100779.75;5095317;28;20052;-34
2021/08/26 05:51:56;;;;;;;0.77;0.70;;;22.00;52.10;;;25.87;35.40;100783.16;5095610;28;20048;-34
2021/08/26 05:54:22;;;;;;;0.70;0.50;;;22.10;52.20;;;25.85;35.43;100777.91;5095483;28;20056;-34
2021/08/26 05:56:50;;;;;;;0.60;0.60;;;22.10;52.10;;;25.89;35.39;100783.84;5095427;28;20056;-34
2021/08/26 05:59:15;;;;;;;0.77;0.57;;;22.10;52.10;;;25.91;35.34;100776.56;5095591;28;20044;-34
2021/08/26 06:01:42;;;;;;;0.80;0.57;;;22.10;52.00;;;25.92;35.28;100782.75;5095364;28;20055;-34
2021/08/26 06:04:08;;;;;;;0.70;0.60;;;22.10;52.00;;;25.96;35.28;100785.09;5095429;28;20048;-34
2021/08/26 06:06:34;;;;;;;0.95;0.85;;;22.10;51.90;;;25.98;35.31;100788.47;5095320;28;20048;-34
2021/08/26 06:08:59;;;;;;;0.60;0.60;;;22.10;51.90;;;25.96;35.32;100785.09;5095834;28;20058;-34
2021/08/26 06:11:25;;;;;;;0.55;0.50;;;22.10;51.90;;;26.00;35.17;100799.91;5095306;28;20048;-34
2021/08/26 06:13:51;;;;;;;1.00;0.60;;;22.10;51.90;;;25.99;35.21;100790.16;5095193;28;20114;-34
2021/08/26 06:16:17;;;;;;;0.80;0.80;;;22.10;51.90;;;25.96;35.03;100787.78;5095272;28;20435;-34
2021/08/26 06:18:43;;;;;;;0.60;0.60;;;22.10;52.00;;;25.96;35.30;100794.94;5095133;28;20556;-34
2021/08/26 06:21:10;;;;;;;0.63;0.60;;;22.10;52.00;;;25.94;35.22;100811.09;5095132;28;20047;-34
2021/08/26 06:23:36;;;;;;;0.95;0.70;;;22.10;52.00;;;25.95;35.29;100820.00;5095057;28;20059;-34
2021/08/26 06:26:02;;;;;;;1.00;0.50;;;22.10;52.10;;;25.93;35.36;100814.78;5095056;28;20036;-34
2021/08/26 06:28:28;;;;;;;0.60;0.60;;;22.10;52.10;;;25.90;35.14;100820.41;5095408;28;20174;-34
2021/08/26 06:30:54;;;;;;;0.98;0.60;;;22.10;52.10;;;25.91;35.16;100827.47;5094991;28;20519;-34
2021/08/26 06:33:19;;;;;;;0.80;0.60;;;22.10;52.10;;;25.92;35.27;100831.81;5094957;28;20555;-34
2021/08/26 06:35:45;;;;;;;1.42;0.70;;;22.10;52.10;;;25.92;35.31;100842.53;5094698;28;20052;-34
2021/08/26 06:38:11;;;;;;;0.60;0.60;;;22.00;52.10;;;25.92;35.47;100849.72;5094836;28;20051;-34
2021/08/26 06:40:37;;;;;;;0.70;0.60;;;22.10;52.10;;;25.87;35.36;100845.59;5095207;28;20054;-34
2021/08/26 06:43:03;;;;;;;0.73;0.60;;;22.10;52.20;;;25.91;35.28;100837.31;5094870;28;20085;-34
2021/08/26 06:45:29;;;;;;;0.82;0.60;;;22.10;52.20;;;25.89;35.37;100835.63;5094823;28;20054;-35
2021/08/26 06:47:55;;;;;;;0.57;0.57;;;22.00;52.10;;;25.88;35.42;100825.88;5094785;28;20418;-35
2021/08/26 06:50:20;;;;;;;1.05;0.80;;;22.00;52.10;;;25.87;35.37;100824.16;5095033;28;20101;-35
2021/08/26 06:52:46;;;;;;;1.33;0.70;;;22.10;52.20;;;25.88;35.35;100809.81;5094678;28;20052;-35
2021/08/26 06:55:12;;;;;;;0.80;0.70;;;22.10;52.10;;;25.92;35.38;100807.72;5094903;28;20051;-35
2021/08/26 06:57:38;;;;;;;1.33;0.70;;;22.10;52.00;;;25.97;35.30;100802.84;5094918;28;20047;-35
2021/08/26 07:00:07;;;;;;;0.63;0.63;;;22.20;52.00;;;25.98;35.32;100801.88;5094598;28;20485;-34
2021/08/26 07:02:33;;;;;;;0.85;0.85;;;22.20;52.00;;;26.06;35.26;100802.09;5094554;28;20048;-35
2021/08/26 07:04:58;;;;;;;0.60;0.52;;;22.30;51.90;;;26.16;35.10;100807.50;5094443;28;20497;-35
2021/08/26 07:07:24;;;;;;;0.60;0.60;;;22.30;51.60;;;-147.20;100.00;58430.41;5094249;28;20040;-35
2021/08/26 07:09:51;;;;;;;0.75;0.68;;;22.50;51.40;;;-147.20;100.00;58430.41;5094257;28;20093;-36
2021/08/26 07:12:17;;;;;;;0.60;0.60;;;22.80;50.90;;;26.75;34.28;100829.34;5094674;28;20044;-35
2021/08/26 07:14:43;;;;;;;0.90;0.70;;;23.00;50.40;;;26.89;34.17;100812.03;5094255;28;20062;-35
2021/08/26 07:17:09;;;;;;;0.77;0.65;;;23.00;50.10;;;26.97;33.89;100812.19;5094543;28;20062;-35
2021/08/26 07:19:34;;;;;;;0.73;0.60;;;23.10;50.00;;;26.97;33.78;100809.50;5094007;28;20083;-35
2021/08/26 07:22:00;;;;;;;0.70;0.70;;;23.00;50.00;;;27.04;33.76;100809.81;5094223;28;20048;-35
2021/08/26 07:24:26;;;;;;;0.70;0.70;;;23.00;50.00;;;27.06;33.55;100807.84;5094006;28;20117;-34
2021/08/26 07:26:52;;;;;;;0.80;0.80;;;23.00;50.10;;;27.08;33.75;100811.22;5094436;28;20054;-34
2021/08/26 07:29:17;;;;;;;0.73;0.68;;;23.00;50.10;;;27.10;33.44;100820.00;5093912;28;20587;-34
2021/08/26 07:31:45;;;;;;;0.60;0.60;;;23.00;50.10;;;27.13;33.28;100820.59;5094175;28;20104;-35
2021/08/26 07:34:11;;;;;;;1.02;0.65;;;23.10;50.10;;;27.16;33.46;100811.41;5093878;28;20075;-34
2021/08/26 07:36:37;;;;;;;0.80;0.80;;;23.10;50.00;;;27.16;33.31;100804.22;5094271;28;20040;-34
2021/08/26 07:39:03;;;;;;;0.70;0.70;;;23.10;49.90;;;27.23;33.31;100807.19;5091571;28;20094;-34
2021/08/26 07:41:30;;;;;;;0.68;0.68;;;23.10;49.90;;;27.23;33.20;100811.69;5094026;28;20128;-35
2021/08/26 07:43:57;;;;;;;0.93;0.77;;;23.10;50.00;;;27.22;33.26;100813.53;5093770;28;20067;-34
2021/08/26 07:46:24;;;;;;;0.82;0.65;;;23.00;50.00;;;27.21;33.08;100817.19;5093123;28;20059;-34
2021/08/26 07:48:49;;;;;;;1.25;0.63;;;23.00;50.10;;;27.21;33.24;100813.66;5075335;28;20102;-34
2021/08/26 07:51:15;;;;;;;1.30;0.75;;;23.00;50.10;;;27.18;33.17;100809.41;5093781;28;20052;-34
2021/08/26 07:53:41;;;;;;;0.75;0.68;;;23.00;50.20;;;27.15;33.32;100807.03;5093501;28;20048;-35
2021/08/26 07:56:07;;;;;;;0.63;0.60;;;22.90;50.20;;;27.14;33.50;100813.38;5093958;28;20044;-34
2021/08/26 07:58:32;;;;;;;0.80;0.70;;;22.90;50.30;;;27.15;33.29;100807.88;5093687;28;20046;-34
2021/08/26 08:01:00;;;;;;;1.15;0.70;;;23.00;50.20;;;27.18;33.45;100817.47;5093434;28;20048;-34
2021/08/26 08:03:26;;;;;;;0.60;0.60;;;23.00;50.70;;;27.24;33.16;100814.25;5074805;28;20070;-35
2021/08/26 08:05:53;;;;;;;0.98;0.70;;;23.00;50.10;;;27.26;33.17;100819.47;5093595;28;20134;-35
2021/08/26 08:08:19;;;;;;;0.52;0.52;;;23.00;50.00;;;27.24;33.05;100819.63;5093392;28;20066;-34
2021/08/26 08:10:45;;;;;;;0.80;0.70;;;23.00;50.10;;;27.27;33.26;100829.25;5093719;28;20480;-35
2021/08/26 08:13:11;;;;;;;1.15;0.88;;;23.00;50.10;;;27.21;33.29;100816.34;5093279;28;20047;-35
2021/08/26 08:15:37;;;;;;;1.40;0.80;;;23.00;50.10;;;27.22;33.05;100820.75;5093649;28;20131;-35
2021/08/26 08:18:04;;;;;;;1.25;0.85;;;23.00;50.20;;;27.18;33.20;100814.78;5093835;28;20042;-35
2021/08/26 08:20:30;;;;;;;1.15;0.70;;;23.00;50.20;;;27.20;32.99;100825.38;5093522;28;20055;-35
2021/08/26 08:22:55;;;;;;;0.88;0.77;;;23.00;50.20;;;27.21;33.15;100830.63;5093204;28;20044;-35
2021/08/26 08:25:21;;;;;;;0.60;0.60;;;23.00;50.20;;;27.17;33.16;100830.06;5093183;28;20404;-34
2021/08/26 08:27:47;;;;;;;0.68;0.68;;;23.00;50.10;;;27.22;33.43;100836.84;5093755;28;20383;-35
2021/08/26 08:30:13;;;;;;;0.50;0.50;;;23.00;50.10;;;27.17;33.15;100822.00;5093079;28;20486;-34
2021/08/26 08:32:39;;;;;;;0.85;0.63;;;23.00;50.10;;;27.20;33.07;100833.44;5093136;28;20052;-35
2021/08/26 08:35:05;;;;;;;1.58;0.90;;;23.00;50.10;;;27.18;33.30;100834.44;5091688;28;20062;-34
2021/08/26 08:37:31;;;;;;;0.85;0.65;;;23.00;50.10;;;27.22;33.02;100844.91;5092888;28;20505;-34
2021/08/26 08:39:57;;;;;;;2.95;1.10;;;23.00;50.10;;;27.21;33.22;100840.50;5093339;28;20047;-34
2021/08/26 08:42:25;;;;;;;0.90;0.60;;;23.00;50.10;;;27.19;33.07;100840.66;5073521;28;20051;-34
2021/08/26 08:44:52;;;;;;;0.90;0.80;;;23.00;50.00;;;27.23;33.16;100841.22;5093197;28;20044;-35
2021/08/26 08:47:19;;;;;;;1.48;0.80;;;23.10;50.10;;;27.23;33.07;100842.09;5093060;28;20052;-34
2021/08/26 08:49:50;;;;;;;1.48;1.05;;;23.00;50.00;;;27.17;33.18;100830.06;5092825;28;20040;-35
2021/08/26 08:52:18;;;;;;;1.95;0.85;;;23.00;50.10;;;27.16;33.00;100848.97;5075514;28;20448;-35
2021/08/26 08:54:44;;;;;;;1.13;0.70;;;23.00;50.20;;;27.12;33.27;100839.50;5074602;28;20056;-34
2021/08/26 08:57:12;;;;;;;1.02;0.80;;;22.90;50.30;;;27.05;33.27;100844.56;5092637;28;20058;-34
2021/08/26 08:59:38;;;;;;;0.65;0.63;;;22.90;50.40;;;27.04;33.54;100844.69;5092365;28;20060;-34
2021/08/26 09:02:04;;;;;;;1.13;0.80;;;22.80;50.40;;;26.98;33.49;100838.03;5092702;28;20048;-34
2021/08/26 09:04:30;;;;;;;0.70;0.70;;;22.80;50.50;;;26.95;33.49;100839.16;5092737;28;20055;-34
2021/08/26 09:06:55;;;;;;;1.85;0.70;;;22.80;50.60;;;26.92;33.30;100842.09;5092436;28;20150;-34
2021/08/26 09:09:21;;;;;;;0.93;0.60;;;22.80;50.60;;;26.88;33.66;100843.38;5092446;28;20417;-34
2021/08/26 09:11:56;;;;;;;0.80;0.80;;;22.80;50.70;;;26.85;33.65;100843.63;5092706;28;20056;-34
2021/08/26 09:14:27;;;;;;;0.98;0.80;;;22.80;50.70;;;26.84;33.69;100838.41;5092442;28;20401;-34
2021/08/26 09:16:55;;;;;;;1.50;1.10;;;22.80;50.70;;;26.84;33.61;100846.44;5092317;28;20135;-34
2021/08/26 09:19:25;;;;;;;0.60;0.60;;;22.80;50.70;;;26.83;33.73;100842.94;5092125;28;20056;-34
2021/08/26 09:21:51;;;;;;;0.85;0.80;;;22.80;50.70;;;26.78;33.75;100834.41;5092344;28;20062;-34
2021/08/26 09:24:18;;;;;;;1.00;0.80;;;22.80;50.60;;;26.84;33.63;100849.13;5092306;28;20052;-34
2021/08/26 09:26:47;;;;;;;1.48;0.70;;;22.80;50.60;;;26.78;33.83;100832.59;5092317;28;20508;-34
2021/08/26 09:29:13;;;;;;;2.03;0.70;;;22.80;50.60;;;26.81;33.70;100839.50;5092351;28;20044;-34
2021/08/26 09:31:40;;;;;;;0.70;0.60;;;22.80;50.60;;;26.81;33.72;100836.81;5092649;28;20448;-34
2021/08/26 09:34:19;;;;;;;1.58;1.02;;;22.80;50.50;;;26.80;33.78;100832.47;5092141;28;20112;-34
2021/08/26 09:36:48;;;;;;;1.52;0.63;;;22.80;50.60;;;26.82;33.96;100841.22;5092481;28;20051;-34
2021/08/26 09:39:16;;;;;;;1.48;0.73;;;22.80;50.60;;;26.81;33.90;100836.81;5092499;28;20091;-34
2021/08/26 09:42:04;;;;;;;1.40;0.90;;;22.80;50.50;;;26.82;33.83;100829.66;5091171;28;20048;-34
2021/08/26 09:44:35;;;;;;;1.50;0.80;;;22.80;50.60;;;26.83;33.75;100828.66;5092263;28;20055;-34
2021/08/26 09:47:05;;;;;;;2.95;1.05;;;22.80;50.60;;;26.82;33.90;100826.97;5091782;28;20063;-34
2021/08/26 09:49:38;;;;;;;1.13;0.70;;;22.80;50.60;;;26.81;33.93;100826.09;5092310;28;20055;-34
2021/08/26 09:52:09;;;;;;;0.70;0.70;;;22.80;50.50;;;26.85;33.70;100826.66;5091899;28;20063;-34
2021/08/26 09:54:41;;;;;;;1.13;0.70;;;22.90;50.60;;;26.84;33.68;100814.25;5092179;28;20052;-34
2021/08/26 09:57:29;;;;;;;0.90;0.75;;;22.90;50.50;;;26.86;33.93;100821.16;5091871;28;20542;-34
2021/08/26 10:00:00;;;;;;;1.30;0.80;;;22.90;50.40;;;26.96;33.74;100816.72;5091855;28;20211;-34
2021/08/26 10:02:29;;;;;;;0.95;0.82;;;23.00;50.20;;;27.05;33.81;100820.41;5091021;28;20405;-34
2021/08/26 10:04:55;;;;;;;1.17;0.90;;;23.10;50.10;;;27.09;33.50;100816.47;5091823;28;20052;-35
2021/08/26 10:07:25;;;;;;;1.20;0.90;;;23.20;50.50;;;27.13;33.41;100814.34;5091745;28;20044;-34
2021/08/26 10:09:51;;;;;;;2.10;0.70;;;23.20;49.80;;;27.16;33.25;100817.63;5091017;28;20075;-34
2021/08/26 10:12:20;;;;;;;0.93;0.63;;;23.20;49.70;;;27.16;33.27;100825.69;5095511;28;20048;-34
2021/08/26 10:14:51;;;;;;;0.88;0.75;;;23.20;49.80;;;27.12;33.54;100824.25;5077431;28;20048;-34
2021/08/26 10:17:18;;;;;;;1.10;0.80;;;23.20;49.80;;;27.12;33.40;100821.56;5095342;28;20135;-34